sensor_id;sensor_type;location;lat;lon;timestamp;P1;durP1;ratioP1;P2;durP2;ratioP2
51020;SDS011;38907;45.562;8.856;2023-12-14T00:03:53;84.13;;;49.92;;
51020;SDS011;38907;45.562;8.856;2023-12-14T00:08:54;88.05;;;49.95;;
51020;SDS011;38907;45.562;8.856;2023-12-14T00:13:57;91.53;;;51.90;;
51020;SDS011;38907;45.562;8.856;2023-12-14T00:18:59;90.93;;;51.25;;
51020;SDS011;38907;45.562;8.856;2023-12-14T00:24:02;102.63;;;54.80;;
51020;SDS011;38907;45.562;8.856;2023-12-14T00:29:05;96.40;;;52.90;;
51020;SDS011;38907;45.562;8.856;2023-12-14T00:34:07;98.15;;;52.65;;
51020;SDS011;38907;45.562;8.856;2023-12-14T00:39:09;86.75;;;50.70;;
51020;SDS011;38907;45.562;8.856;2023-12-14T00:44:12;98.57;;;57.22;;
51020;SDS011;38907;45.562;8.856;2023-12-14T00:49:15;89.03;;;50.45;;
51020;SDS011;38907;45.562;8.856;2023-12-14T00:54:18;96.97;;;57.17;;
51020;SDS011;38907;45.562;8.856;2023-12-14T00:59:21;102.72;;;55.40;;
51020;SDS011;38907;45.562;8.856;2023-12-14T01:04:23;99.57;;;56.80;;
51020;SDS011;38907;45.562;8.856;2023-12-14T01:09:24;103.32;;;54.78;;
51020;SDS011;38907;45.562;8.856;2023-12-14T01:14:27;105.00;;;56.28;;
51020;SDS011;38907;45.562;8.856;2023-12-14T01:19:29;90.10;;;53.13;;
51020;SDS011;38907;45.562;8.856;2023-12-14T01:24:31;91.05;;;50.53;;
51020;SDS011;38907;45.562;8.856;2023-12-14T01:29:34;88.68;;;49.75;;
51020;SDS011;38907;45.562;8.856;2023-12-14T01:34:36;69.40;;;44.38;;
51020;SDS011;38907;45.562;8.856;2023-12-14T01:39:38;71.72;;;46.03;;
51020;SDS011;38907;45.562;8.856;2023-12-14T01:44:41;72.65;;;45.60;;
51020;SDS011;38907;45.562;8.856;2023-12-14T01:49:43;71.20;;;45.95;;
51020;SDS011;38907;45.562;8.856;2023-12-14T01:54:45;65.85;;;45.47;;
51020;SDS011;38907;45.562;8.856;2023-12-14T01:59:48;65.82;;;44.25;;
51020;SDS011;38907;45.562;8.856;2023-12-14T02:04:50;66.18;;;44.97;;
51020;SDS011;38907;45.562;8.856;2023-12-14T02:09:51;71.38;;;45.33;;
51020;SDS011;38907;45.562;8.856;2023-12-14T02:14:57;71.15;;;46.72;;
51020;SDS011;38907;45.562;8.856;2023-12-14T02:19:58;68.95;;;44.80;;
51020;SDS011;38907;45.562;8.856;2023-12-14T02:25:02;77.30;;;46.05;;
51020;SDS011;38907;45.562;8.856;2023-12-14T02:30:05;91.85;;;50.10;;
51020;SDS011;38907;45.562;8.856;2023-12-14T02:35:08;86.75;;;51.40;;
51020;SDS011;38907;45.562;8.856;2023-12-14T02:40:11;104.70;;;55.58;;
51020;SDS011;38907;45.562;8.856;2023-12-14T02:45:14;100.18;;;55.80;;
51020;SDS011;38907;45.562;8.856;2023-12-14T02:50:15;91.88;;;51.67;;
51020;SDS011;38907;45.562;8.856;2023-12-14T02:55:18;100.72;;;53.28;;
51020;SDS011;38907;45.562;8.856;2023-12-14T03:00:20;93.70;;;52.58;;
51020;SDS011;38907;45.562;8.856;2023-12-14T03:05:22;92.63;;;51.60;;
51020;SDS011;38907;45.562;8.856;2023-12-14T03:10:25;88.07;;;51.95;;
51020;SDS011;38907;45.562;8.856;2023-12-14T03:15:27;85.20;;;51.72;;
51020;SDS011;38907;45.562;8.856;2023-12-14T03:20:29;89.75;;;50.78;;
51020;SDS011;38907;45.562;8.856;2023-12-14T03:25:32;88.68;;;50.38;;
51020;SDS011;38907;45.562;8.856;2023-12-14T03:30:34;103.38;;;54.20;;
51020;SDS011;38907;45.562;8.856;2023-12-14T03:35:36;109.95;;;53.47;;
51020;SDS011;38907;45.562;8.856;2023-12-14T03:40:39;93.30;;;52.33;;
51020;SDS011;38907;45.562;8.856;2023-12-14T03:45:41;117.28;;;51.95;;
51020;SDS011;38907;45.562;8.856;2023-12-14T03:50:43;98.20;;;51.30;;
51020;SDS011;38907;45.562;8.856;2023-12-14T03:55:46;78.75;;;49.88;;
51020;SDS011;38907;45.562;8.856;2023-12-14T04:00:48;69.03;;;47.55;;
51020;SDS011;38907;45.562;8.856;2023-12-14T04:05:50;61.67;;;44.33;;
51020;SDS011;38907;45.562;8.856;2023-12-14T04:10:53;98.93;;;45.00;;
51020;SDS011;38907;45.562;8.856;2023-12-14T04:15:55;90.47;;;44.92;;
51020;SDS011;38907;45.562;8.856;2023-12-14T04:20:57;100.30;;;43.92;;
51020;SDS011;38907;45.562;8.856;2023-12-14T04:26:00;92.55;;;43.92;;
51020;SDS011;38907;45.562;8.856;2023-12-14T04:31:02;74.80;;;43.55;;
51020;SDS011;38907;45.562;8.856;2023-12-14T04:36:04;78.03;;;39.63;;
51020;SDS011;38907;45.562;8.856;2023-12-14T04:41:09;49.65;;;38.28;;
51020;SDS011;38907;45.562;8.856;2023-12-14T04:46:10;55.97;;;37.42;;
51020;SDS011;38907;45.562;8.856;2023-12-14T04:51:12;50.00;;;35.83;;
51020;SDS011;38907;45.562;8.856;2023-12-14T04:56:15;42.28;;;34.47;;
51020;SDS011;38907;45.562;8.856;2023-12-14T05:01:17;42.40;;;32.88;;
51020;SDS011;38907;45.562;8.856;2023-12-14T05:06:19;35.50;;;30.25;;
51020;SDS011;38907;45.562;8.856;2023-12-14T05:11:22;35.00;;;28.65;;
51020;SDS011;38907;45.562;8.856;2023-12-14T05:16:24;33.80;;;27.38;;
51020;SDS011;38907;45.562;8.856;2023-12-14T05:21:26;32.00;;;27.00;;
51020;SDS011;38907;45.562;8.856;2023-12-14T05:26:30;30.60;;;25.45;;
51020;SDS011;38907;45.562;8.856;2023-12-14T05:31:31;27.77;;;24.55;;
51020;SDS011;38907;45.562;8.856;2023-12-14T05:36:33;28.30;;;25.17;;
51020;SDS011;38907;45.562;8.856;2023-12-14T05:41:40;30.85;;;26.40;;
51020;SDS011;38907;45.562;8.856;2023-12-14T05:46:42;32.67;;;26.15;;
51020;SDS011;38907;45.562;8.856;2023-12-14T05:51:44;30.02;;;24.17;;
51020;SDS011;38907;45.562;8.856;2023-12-14T05:56:47;30.90;;;24.73;;
51020;SDS011;38907;45.562;8.856;2023-12-14T06:01:49;37.85;;;28.08;;
51020;SDS011;38907;45.562;8.856;2023-12-14T06:06:50;47.67;;;28.65;;
51020;SDS011;38907;45.562;8.856;2023-12-14T06:11:54;195.07;;;30.98;;
51020;SDS011;38907;45.562;8.856;2023-12-14T06:16:55;60.10;;;29.83;;
51020;SDS011;38907;45.562;8.856;2023-12-14T06:21:57;114.95;;;30.45;;
51020;SDS011;38907;45.562;8.856;2023-12-14T06:27:01;91.07;;;30.42;;
51020;SDS011;38907;45.562;8.856;2023-12-14T06:32:04;51.83;;;28.92;;
51020;SDS011;38907;45.562;8.856;2023-12-14T06:37:07;37.00;;;26.75;;
51020;SDS011;38907;45.562;8.856;2023-12-14T06:42:10;31.17;;;26.50;;
51020;SDS011;38907;45.562;8.856;2023-12-14T06:47:12;41.92;;;25.55;;
51020;SDS011;38907;45.562;8.856;2023-12-14T06:52:14;61.63;;;28.55;;
51020;SDS011;38907;45.562;8.856;2023-12-14T06:57:17;44.70;;;26.92;;
51020;SDS011;38907;45.562;8.856;2023-12-14T07:02:19;42.70;;;24.60;;
51020;SDS011;38907;45.562;8.856;2023-12-14T07:07:21;116.55;;;25.60;;
51020;SDS011;38907;45.562;8.856;2023-12-14T07:12:24;31.20;;;24.50;;
51020;SDS011;38907;45.562;8.856;2023-12-14T07:17:26;35.97;;;22.75;;
51020;SDS011;38907;45.562;8.856;2023-12-14T07:22:28;45.92;;;22.50;;
51020;SDS011;38907;45.562;8.856;2023-12-14T07:27:31;32.00;;;22.77;;
51020;SDS011;38907;45.562;8.856;2023-12-14T07:32:33;30.30;;;23.45;;
51020;SDS011;38907;45.562;8.856;2023-12-14T07:37:35;26.10;;;23.33;;
51020;SDS011;38907;45.562;8.856;2023-12-14T07:42:38;30.83;;;24.50;;
51020;SDS011;38907;45.562;8.856;2023-12-14T07:47:40;28.17;;;22.70;;
51020;SDS011;38907;45.562;8.856;2023-12-14T07:52:42;26.85;;;22.70;;
51020;SDS011;38907;45.562;8.856;2023-12-14T07:57:45;37.55;;;25.75;;
51020;SDS011;38907;45.562;8.856;2023-12-14T08:02:47;36.72;;;24.52;;
51020;SDS011;38907;45.562;8.856;2023-12-14T08:07:49;116.45;;;25.67;;
51020;SDS011;38907;45.562;8.856;2023-12-14T08:12:53;28.83;;;23.35;;
51020;SDS011;38907;45.562;8.856;2023-12-14T08:17:55;29.60;;;22.08;;
51020;SDS011;38907;45.562;8.856;2023-12-14T08:22:57;31.33;;;22.10;;
51020;SDS011;38907;45.562;8.856;2023-12-14T08:28:00;25.20;;;20.80;;
51020;SDS011;38907;45.562;8.856;2023-12-14T08:33:02;29.80;;;22.60;;
51020;SDS011;38907;45.562;8.856;2023-12-14T08:38:04;25.25;;;22.55;;
51020;SDS011;38907;45.562;8.856;2023-12-14T08:43:07;33.08;;;27.88;;
51020;SDS011;38907;45.562;8.856;2023-12-14T08:48:09;34.58;;;28.15;;
51020;SDS011;38907;45.562;8.856;2023-12-14T08:53:10;25.58;;;22.88;;
51020;SDS011;38907;45.562;8.856;2023-12-14T08:58:14;28.35;;;24.83;;
51020;SDS011;38907;45.562;8.856;2023-12-14T09:03:15;32.58;;;26.42;;
51020;SDS011;38907;45.562;8.856;2023-12-14T09:08:17;31.70;;;25.70;;
51020;SDS011;38907;45.562;8.856;2023-12-14T09:13:20;30.23;;;26.70;;
51020;SDS011;38907;45.562;8.856;2023-12-14T09:18:22;34.08;;;26.92;;
51020;SDS011;38907;45.562;8.856;2023-12-14T09:23:24;30.45;;;25.52;;
51020;SDS011;38907;45.562;8.856;2023-12-14T09:28:27;31.70;;;25.15;;
51020;SDS011;38907;45.562;8.856;2023-12-14T09:33:29;34.25;;;24.67;;
51020;SDS011;38907;45.562;8.856;2023-12-14T09:38:30;28.52;;;24.38;;
51020;SDS011;38907;45.562;8.856;2023-12-14T09:43:34;30.90;;;27.17;;
51020;SDS011;38907;45.562;8.856;2023-12-14T09:48:36;40.33;;;32.10;;
51020;SDS011;38907;45.562;8.856;2023-12-14T09:53:37;38.53;;;31.70;;
51020;SDS011;38907;45.562;8.856;2023-12-14T09:58:41;39.58;;;32.67;;
51020;SDS011;38907;45.562;8.856;2023-12-14T10:03:42;36.60;;;30.73;;
51020;SDS011;38907;45.562;8.856;2023-12-14T10:08:52;36.08;;;29.35;;
51020;SDS011;38907;45.562;8.856;2023-12-14T10:13:58;32.53;;;27.55;;
51020;SDS011;38907;45.562;8.856;2023-12-14T10:19:00;31.92;;;27.50;;
51020;SDS011;38907;45.562;8.856;2023-12-14T10:24:02;32.22;;;28.73;;
51020;SDS011;38907;45.562;8.856;2023-12-14T10:29:07;33.50;;;29.40;;
51020;SDS011;38907;45.562;8.856;2023-12-14T10:39:13;36.95;;;28.48;;
51020;SDS011;38907;45.562;8.856;2023-12-14T10:44:17;38.03;;;29.20;;
51020;SDS011;38907;45.562;8.856;2023-12-14T10:49:20;39.45;;;31.17;;
51020;SDS011;38907;45.562;8.856;2023-12-14T10:54:22;37.42;;;30.25;;
51020;SDS011;38907;45.562;8.856;2023-12-14T10:59:27;39.28;;;32.03;;
51020;SDS011;38907;45.562;8.856;2023-12-14T11:04:29;47.40;;;36.38;;
51020;SDS011;38907;45.562;8.856;2023-12-14T11:09:30;40.25;;;32.78;;
51020;SDS011;38907;45.562;8.856;2023-12-14T11:14:34;43.25;;;33.13;;
51020;SDS011;38907;45.562;8.856;2023-12-14T11:19:36;42.35;;;32.25;;
51020;SDS011;38907;45.562;8.856;2023-12-14T11:24:41;43.70;;;33.05;;
51020;SDS011;38907;45.562;8.856;2023-12-14T11:29:45;41.22;;;32.13;;
51020;SDS011;38907;45.562;8.856;2023-12-14T11:34:48;38.55;;;31.35;;
51020;SDS011;38907;45.562;8.856;2023-12-14T11:39:50;35.10;;;29.40;;
51020;SDS011;38907;45.562;8.856;2023-12-14T11:44:54;38.40;;;32.15;;
51020;SDS011;38907;45.562;8.856;2023-12-14T11:49:57;40.75;;;32.08;;
51020;SDS011;38907;45.562;8.856;2023-12-14T11:54:59;39.45;;;33.72;;
51020;SDS011;38907;45.562;8.856;2023-12-14T12:00:02;42.72;;;33.58;;
51020;SDS011;38907;45.562;8.856;2023-12-14T12:05:05;43.33;;;34.97;;
51020;SDS011;38907;45.562;8.856;2023-12-14T12:10:07;47.40;;;36.15;;
51020;SDS011;38907;45.562;8.856;2023-12-14T12:15:11;55.40;;;36.53;;
51020;SDS011;38907;45.562;8.856;2023-12-14T12:20:13;43.47;;;35.67;;
51020;SDS011;38907;45.562;8.856;2023-12-14T12:25:15;44.88;;;33.88;;
51020;SDS011;38907;45.562;8.856;2023-12-14T12:30:18;39.63;;;31.95;;
51020;SDS011;38907;45.562;8.856;2023-12-14T12:35:20;41.13;;;33.22;;
51020;SDS011;38907;45.562;8.856;2023-12-14T12:40:22;37.92;;;29.65;;
51020;SDS011;38907;45.562;8.856;2023-12-14T12:45:27;36.72;;;28.38;;
51020;SDS011;38907;45.562;8.856;2023-12-14T12:50:29;39.65;;;28.95;;
51020;SDS011;38907;45.562;8.856;2023-12-14T12:55:31;35.50;;;26.67;;
51020;SDS011;38907;45.562;8.856;2023-12-14T13:00:34;36.42;;;25.73;;
51020;SDS011;38907;45.562;8.856;2023-12-14T13:05:38;30.50;;;24.33;;
51020;SDS011;38907;45.562;8.856;2023-12-14T13:10:40;37.10;;;25.33;;
51020;SDS011;38907;45.562;8.856;2023-12-14T13:15:43;37.60;;;23.97;;
51020;SDS011;38907;45.562;8.856;2023-12-14T13:20:45;30.52;;;25.00;;
51020;SDS011;38907;45.562;8.856;2023-12-14T13:25:47;29.98;;;24.67;;
51020;SDS011;38907;45.562;8.856;2023-12-14T13:30:50;34.03;;;25.23;;
51020;SDS011;38907;45.562;8.856;2023-12-14T13:35:52;30.65;;;25.80;;
51020;SDS011;38907;45.562;8.856;2023-12-14T13:40:55;31.73;;;25.30;;
51020;SDS011;38907;45.562;8.856;2023-12-14T13:45:58;38.75;;;29.70;;
51020;SDS011;38907;45.562;8.856;2023-12-14T13:50:59;40.40;;;32.88;;
51020;SDS011;38907;45.562;8.856;2023-12-14T13:56:01;47.13;;;38.05;;
51020;SDS011;38907;45.562;8.856;2023-12-14T14:01:05;49.85;;;37.67;;
51020;SDS011;38907;45.562;8.856;2023-12-14T14:06:07;54.08;;;40.20;;
51020;SDS011;38907;45.562;8.856;2023-12-14T14:11:09;51.38;;;39.70;;
51020;SDS011;38907;45.562;8.856;2023-12-14T14:16:14;49.45;;;37.63;;
51020;SDS011;38907;45.562;8.856;2023-12-14T14:21:16;46.55;;;37.15;;
51020;SDS011;38907;45.562;8.856;2023-12-14T14:26:18;51.58;;;37.20;;
51020;SDS011;38907;45.562;8.856;2023-12-14T14:31:21;49.00;;;38.08;;
51020;SDS011;38907;45.562;8.856;2023-12-14T14:36:23;45.20;;;34.92;;
51020;SDS011;38907;45.562;8.856;2023-12-14T14:41:24;43.30;;;31.55;;
51020;SDS011;38907;45.562;8.856;2023-12-14T14:46:28;41.85;;;33.35;;
51020;SDS011;38907;45.562;8.856;2023-12-14T14:51:30;42.85;;;32.92;;
51020;SDS011;38907;45.562;8.856;2023-12-14T14:56:31;44.75;;;33.38;;
51020;SDS011;38907;45.562;8.856;2023-12-14T15:01:34;41.92;;;34.00;;
51020;SDS011;38907;45.562;8.856;2023-12-14T15:06:36;41.70;;;32.25;;
51020;SDS011;38907;45.562;8.856;2023-12-14T15:11:38;44.63;;;34.28;;
51020;SDS011;38907;45.562;8.856;2023-12-14T15:16:42;45.65;;;35.63;;
51020;SDS011;38907;45.562;8.856;2023-12-14T15:21:44;46.55;;;34.53;;
51020;SDS011;38907;45.562;8.856;2023-12-14T15:26:45;43.70;;;33.72;;
51020;SDS011;38907;45.562;8.856;2023-12-14T15:31:50;43.60;;;34.50;;
51020;SDS011;38907;45.562;8.856;2023-12-14T15:36:53;47.92;;;35.35;;
51020;SDS011;38907;45.562;8.856;2023-12-14T15:41:55;49.60;;;36.30;;
51020;SDS011;38907;45.562;8.856;2023-12-14T15:46:58;50.70;;;36.83;;
51020;SDS011;38907;45.562;8.856;2023-12-14T15:52:00;50.90;;;37.83;;
51020;SDS011;38907;45.562;8.856;2023-12-14T15:57:02;44.42;;;35.05;;
51020;SDS011;38907;45.562;8.856;2023-12-14T16:02:05;44.67;;;34.92;;
51020;SDS011;38907;45.562;8.856;2023-12-14T16:07:07;45.67;;;34.28;;
51020;SDS011;38907;45.562;8.856;2023-12-14T16:12:09;66.18;;;45.70;;
51020;SDS011;38907;45.562;8.856;2023-12-14T16:17:12;93.63;;;63.78;;
51020;SDS011;38907;45.562;8.856;2023-12-14T16:22:14;66.97;;;48.05;;
51020;SDS011;38907;45.562;8.856;2023-12-14T16:27:17;62.28;;;42.63;;
51020;SDS011;38907;45.562;8.856;2023-12-14T16:32:20;62.67;;;44.72;;
51020;SDS011;38907;45.562;8.856;2023-12-14T16:37:22;63.15;;;43.53;;
51020;SDS011;38907;45.562;8.856;2023-12-14T16:42:26;66.13;;;44.67;;
51020;SDS011;38907;45.562;8.856;2023-12-14T16:47:29;60.17;;;44.53;;
51020;SDS011;38907;45.562;8.856;2023-12-14T16:52:32;78.22;;;55.67;;
51020;SDS011;38907;45.562;8.856;2023-12-14T16:57:34;80.53;;;62.30;;
51020;SDS011;38907;45.562;8.856;2023-12-14T17:02:37;58.65;;;44.70;;
51020;SDS011;38907;45.562;8.856;2023-12-14T17:07:39;69.30;;;48.70;;
51020;SDS011;38907;45.562;8.856;2023-12-14T17:12:41;66.72;;;50.83;;
51020;SDS011;38907;45.562;8.856;2023-12-14T17:17:44;67.18;;;50.67;;
51020;SDS011;38907;45.562;8.856;2023-12-14T17:22:46;65.15;;;50.40;;
51020;SDS011;38907;45.562;8.856;2023-12-14T17:27:48;61.92;;;45.97;;
51020;SDS011;38907;45.562;8.856;2023-12-14T17:32:51;58.92;;;43.05;;
51020;SDS011;38907;45.562;8.856;2023-12-14T17:37:53;53.83;;;41.45;;
51020;SDS011;38907;45.562;8.856;2023-12-14T17:42:54;59.60;;;42.42;;
51020;SDS011;38907;45.562;8.856;2023-12-14T17:47:58;64.00;;;43.70;;
51020;SDS011;38907;45.562;8.856;2023-12-14T17:52:59;58.58;;;42.60;;
51020;SDS011;38907;45.562;8.856;2023-12-14T17:58:01;67.47;;;44.33;;
51020;SDS011;38907;45.562;8.856;2023-12-14T18:03:04;60.53;;;44.58;;
51020;SDS011;38907;45.562;8.856;2023-12-14T18:08:06;57.17;;;43.55;;
51020;SDS011;38907;45.562;8.856;2023-12-14T18:13:08;87.32;;;57.85;;
51020;SDS011;38907;45.562;8.856;2023-12-14T18:18:11;85.78;;;61.15;;
51020;SDS011;38907;45.562;8.856;2023-12-14T18:23:13;78.97;;;56.50;;
51020;SDS011;38907;45.562;8.856;2023-12-14T18:28:15;77.95;;;57.42;;
51020;SDS011;38907;45.562;8.856;2023-12-14T18:33:19;82.47;;;59.38;;
51020;SDS011;38907;45.562;8.856;2023-12-14T18:38:21;73.03;;;54.45;;
51020;SDS011;38907;45.562;8.856;2023-12-14T18:43:23;77.20;;;55.05;;
51020;SDS011;38907;45.562;8.856;2023-12-14T18:48:26;81.57;;;58.03;;
51020;SDS011;38907;45.562;8.856;2023-12-14T18:53:28;79.43;;;56.35;;
51020;SDS011;38907;45.562;8.856;2023-12-14T18:58:30;75.43;;;59.75;;
51020;SDS011;38907;45.562;8.856;2023-12-14T19:03:33;93.18;;;65.35;;
51020;SDS011;38907;45.562;8.856;2023-12-14T19:08:37;80.68;;;55.90;;
51020;SDS011;38907;45.562;8.856;2023-12-14T19:13:40;81.43;;;52.53;;
51020;SDS011;38907;45.562;8.856;2023-12-14T19:18:43;63.20;;;48.08;;
51020;SDS011;38907;45.562;8.856;2023-12-14T19:23:44;48.72;;;36.60;;
51020;SDS011;38907;45.562;8.856;2023-12-14T19:28:46;35.20;;;26.48;;
51020;SDS011;38907;45.562;8.856;2023-12-14T19:33:49;37.75;;;26.73;;
51020;SDS011;38907;45.562;8.856;2023-12-14T19:38:51;31.30;;;24.63;;
51020;SDS011;38907;45.562;8.856;2023-12-14T19:43:53;21.77;;;15.30;;
51020;SDS011;38907;45.562;8.856;2023-12-14T19:48:56;20.55;;;16.38;;
51020;SDS011;38907;45.562;8.856;2023-12-14T19:53:58;35.20;;;24.50;;
51020;SDS011;38907;45.562;8.856;2023-12-14T19:59:00;31.02;;;22.27;;
51020;SDS011;38907;45.562;8.856;2023-12-14T20:04:03;43.90;;;27.88;;
51020;SDS011;38907;45.562;8.856;2023-12-14T20:09:05;29.17;;;22.23;;
51020;SDS011;38907;45.562;8.856;2023-12-14T20:14:07;29.38;;;20.88;;
51020;SDS011;38907;45.562;8.856;2023-12-14T20:19:10;30.33;;;21.45;;
51020;SDS011;38907;45.562;8.856;2023-12-14T20:24:12;33.45;;;21.50;;
51020;SDS011;38907;45.562;8.856;2023-12-14T20:29:14;21.27;;;15.13;;
51020;SDS011;38907;45.562;8.856;2023-12-14T20:34:18;16.10;;;11.23;;
51020;SDS011;38907;45.562;8.856;2023-12-14T20:39:20;12.52;;;8.90;;
51020;SDS011;38907;45.562;8.856;2023-12-14T20:44:22;17.13;;;8.45;;
51020;SDS011;38907;45.562;8.856;2023-12-14T20:49:25;13.60;;;9.65;;
51020;SDS011;38907;45.562;8.856;2023-12-14T20:54:27;17.65;;;9.55;;
51020;SDS011;38907;45.562;8.856;2023-12-14T20:59:29;6.38;;;5.32;;
51020;SDS011;38907;45.562;8.856;2023-12-14T21:04:32;10.48;;;6.32;;
51020;SDS011;38907;45.562;8.856;2023-12-14T21:09:34;7.88;;;6.05;;
51020;SDS011;38907;45.562;8.856;2023-12-14T21:14:36;7.83;;;6.10;;
51020;SDS011;38907;45.562;8.856;2023-12-14T21:19:46;12.15;;;8.80;;
51020;SDS011;38907;45.562;8.856;2023-12-14T21:24:48;13.38;;;9.93;;
51020;SDS011;38907;45.562;8.856;2023-12-14T21:29:53;8.65;;;6.75;;
51020;SDS011;38907;45.562;8.856;2023-12-14T21:34:56;18.70;;;10.45;;
51020;SDS011;38907;45.562;8.856;2023-12-14T21:39:58;16.60;;;9.02;;
51020;SDS011;38907;45.562;8.856;2023-12-14T21:45:00;7.35;;;5.22;;
51020;SDS011;38907;45.562;8.856;2023-12-14T21:50:05;6.97;;;5.18;;
51020;SDS011;38907;45.562;8.856;2023-12-14T21:55:07;16.92;;;11.40;;
51020;SDS011;38907;45.562;8.856;2023-12-14T22:00:10;17.13;;;8.88;;
51020;SDS011;38907;45.562;8.856;2023-12-14T22:05:13;15.50;;;7.13;;
51020;SDS011;38907;45.562;8.856;2023-12-14T22:10:15;9.10;;;4.50;;
51020;SDS011;38907;45.562;8.856;2023-12-14T22:15:17;5.95;;;3.80;;
51020;SDS011;38907;45.562;8.856;2023-12-14T22:20:20;8.95;;;4.90;;
51020;SDS011;38907;45.562;8.856;2023-12-14T22:25:22;4.57;;;3.13;;
51020;SDS011;38907;45.562;8.856;2023-12-14T22:30:24;5.50;;;3.20;;
51020;SDS011;38907;45.562;8.856;2023-12-14T22:35:28;9.07;;;5.03;;
51020;SDS011;38907;45.562;8.856;2023-12-14T22:40:30;9.88;;;4.25;;
51020;SDS011;38907;45.562;8.856;2023-12-14T22:45:31;7.95;;;4.28;;
51020;SDS011;38907;45.562;8.856;2023-12-14T22:50:35;8.35;;;4.20;;
51020;SDS011;38907;45.562;8.856;2023-12-14T22:55:36;3.38;;;2.55;;
51020;SDS011;38907;45.562;8.856;2023-12-14T23:00:38;1.60;;;1.45;;
51020;SDS011;38907;45.562;8.856;2023-12-14T23:05:42;1.42;;;1.27;;
51020;SDS011;38907;45.562;8.856;2023-12-14T23:10:44;1.55;;;1.13;;
51020;SDS011;38907;45.562;8.856;2023-12-14T23:15:46;1.13;;;1.00;;
51020;SDS011;38907;45.562;8.856;2023-12-14T23:20:49;1.33;;;0.95;;
51020;SDS011;38907;45.562;8.856;2023-12-14T23:25:51;0.85;;;0.75;;
51020;SDS011;38907;45.562;8.856;2023-12-14T23:30:53;1.17;;;0.82;;
51020;SDS011;38907;45.562;8.856;2023-12-14T23:35:56;1.45;;;1.25;;
51020;SDS011;38907;45.562;8.856;2023-12-14T23:40:57;1.45;;;1.30;;
51020;SDS011;38907;45.562;8.856;2023-12-14T23:45:59;1.35;;;1.10;;
51020;SDS011;38907;45.562;8.856;2023-12-14T23:51:03;1.10;;;1.00;;
51020;SDS011;38907;45.562;8.856;2023-12-14T23:56:06;1.50;;;1.27;;
